sensor_id;sensor_type;location;lat;lon;timestamp;P1;durP1;ratioP1;P2;durP2;ratioP2
18677;SDS011;9469;51.114;13.914;2022-11-22T00:01:51;19.13;;;12.37;;
18677;SDS011;9469;51.114;13.914;2022-11-22T00:06:57;18.27;;;14.13;;
18677;SDS011;9469;51.114;13.914;2022-11-22T00:12:03;24.27;;;15.50;;
18677;SDS011;9469;51.114;13.914;2022-11-22T00:17:12;23.93;;;14.90;;
18677;SDS011;9469;51.114;13.914;2022-11-22T00:22:17;22.23;;;15.17;;
18677;SDS011;9469;51.114;13.914;2022-11-22T00:27:23;23.63;;;15.27;;
18677;SDS011;9469;51.114;13.914;2022-11-22T00:32:30;20.70;;;14.07;;
18677;SDS011;9469;51.114;13.914;2022-11-22T00:37:35;20.43;;;13.07;;
18677;SDS011;9469;51.114;13.914;2022-11-22T00:42:40;20.67;;;14.60;;
18677;SDS011;9469;51.114;13.914;2022-11-22T00:47:48;21.60;;;13.60;;
18677;SDS011;9469;51.114;13.914;2022-11-22T00:52:53;18.43;;;14.37;;
18677;SDS011;9469;51.114;13.914;2022-11-22T00:57:58;18.87;;;12.97;;
18677;SDS011;9469;51.114;13.914;2022-11-22T01:03:05;20.27;;;14.47;;
18677;SDS011;9469;51.114;13.914;2022-11-22T01:08:11;17.13;;;13.60;;
18677;SDS011;9469;51.114;13.914;2022-11-22T01:13:15;18.10;;;14.13;;
18677;SDS011;9469;51.114;13.914;2022-11-22T01:18:23;23.67;;;15.77;;
18677;SDS011;9469;51.114;13.914;2022-11-22T01:23:28;20.70;;;13.23;;
18677;SDS011;9469;51.114;13.914;2022-11-22T01:28:35;22.90;;;13.60;;
18677;SDS011;9469;51.114;13.914;2022-11-22T01:33:43;21.97;;;15.23;;
18677;SDS011;9469;51.114;13.914;2022-11-22T01:38:48;22.27;;;15.50;;
18677;SDS011;9469;51.114;13.914;2022-11-22T01:43:54;20.83;;;15.10;;
18677;SDS011;9469;51.114;13.914;2022-11-22T01:49:03;17.70;;;13.70;;
18677;SDS011;9469;51.114;13.914;2022-11-22T01:54:16;20.97;;;14.67;;
18677;SDS011;9469;51.114;13.914;2022-11-22T01:59:26;19.37;;;14.07;;
18677;SDS011;9469;51.114;13.914;2022-11-22T02:04:39;18.10;;;12.83;;
18677;SDS011;9469;51.114;13.914;2022-11-22T02:09:46;22.93;;;15.53;;
18677;SDS011;9469;51.114;13.914;2022-11-22T02:14:54;20.97;;;14.93;;
18677;SDS011;9469;51.114;13.914;2022-11-22T02:20:05;23.13;;;15.77;;
18677;SDS011;9469;51.114;13.914;2022-11-22T02:25:12;21.33;;;16.53;;
18677;SDS011;9469;51.114;13.914;2022-11-22T02:30:26;23.47;;;15.50;;
18677;SDS011;9469;51.114;13.914;2022-11-22T02:35:33;25.57;;;17.23;;
18677;SDS011;9469;51.114;13.914;2022-11-22T02:40:41;26.47;;;18.47;;
18677;SDS011;9469;51.114;13.914;2022-11-22T02:46:00;25.23;;;18.00;;
18677;SDS011;9469;51.114;13.914;2022-11-22T02:51:07;24.53;;;17.67;;
18677;SDS011;9469;51.114;13.914;2022-11-22T02:56:18;26.83;;;17.60;;
18677;SDS011;9469;51.114;13.914;2022-11-22T03:01:25;25.47;;;18.40;;
18677;SDS011;9469;51.114;13.914;2022-11-22T03:06:31;27.87;;;19.27;;
18677;SDS011;9469;51.114;13.914;2022-11-22T03:11:37;28.27;;;18.13;;
18677;SDS011;9469;51.114;13.914;2022-11-22T03:16:48;27.20;;;18.40;;
18677;SDS011;9469;51.114;13.914;2022-11-22T03:21:53;27.73;;;17.93;;
18677;SDS011;9469;51.114;13.914;2022-11-22T03:26:58;25.60;;;17.30;;
18677;SDS011;9469;51.114;13.914;2022-11-22T03:32:06;28.30;;;18.60;;
18677;SDS011;9469;51.114;13.914;2022-11-22T03:37:11;27.83;;;17.93;;
18677;SDS011;9469;51.114;13.914;2022-11-22T03:42:16;25.87;;;16.73;;
18677;SDS011;9469;51.114;13.914;2022-11-22T03:47:25;26.03;;;17.93;;
18677;SDS011;9469;51.114;13.914;2022-11-22T03:52:33;28.47;;;18.47;;
18677;SDS011;9469;51.114;13.914;2022-11-22T03:57:38;26.43;;;17.57;;
18677;SDS011;9469;51.114;13.914;2022-11-22T04:02:46;27.07;;;19.47;;
18677;SDS011;9469;51.114;13.914;2022-11-22T04:07:52;26.20;;;17.67;;
18677;SDS011;9469;51.114;13.914;2022-11-22T04:12:57;25.20;;;19.07;;
18677;SDS011;9469;51.114;13.914;2022-11-22T04:18:07;24.63;;;17.93;;
18677;SDS011;9469;51.114;13.914;2022-11-22T04:23:13;26.47;;;17.90;;
18677;SDS011;9469;51.114;13.914;2022-11-22T04:28:21;26.27;;;17.07;;
18677;SDS011;9469;51.114;13.914;2022-11-22T04:33:50;23.70;;;15.73;;
18677;SDS011;9469;51.114;13.914;2022-11-22T04:38:56;20.83;;;15.53;;
18677;SDS011;9469;51.114;13.914;2022-11-22T04:44:02;27.13;;;16.57;;
18677;SDS011;9469;51.114;13.914;2022-11-22T04:49:22;23.83;;;16.77;;
18677;SDS011;9469;51.114;13.914;2022-11-22T04:54:27;24.70;;;16.53;;
18677;SDS011;9469;51.114;13.914;2022-11-22T04:59:32;24.47;;;15.37;;
18677;SDS011;9469;51.114;13.914;2022-11-22T05:04:39;22.57;;;16.23;;
18677;SDS011;9469;51.114;13.914;2022-11-22T05:09:51;21.63;;;15.77;;
18677;SDS011;9469;51.114;13.914;2022-11-22T05:14:56;20.50;;;14.30;;
18677;SDS011;9469;51.114;13.914;2022-11-22T05:20:05;20.80;;;14.73;;
18677;SDS011;9469;51.114;13.914;2022-11-22T05:25:12;20.97;;;14.50;;
18677;SDS011;9469;51.114;13.914;2022-11-22T05:30:23;19.80;;;14.30;;
18677;SDS011;9469;51.114;13.914;2022-11-22T05:35:30;21.77;;;14.73;;
18677;SDS011;9469;51.114;13.914;2022-11-22T05:40:37;20.07;;;13.50;;
18677;SDS011;9469;51.114;13.914;2022-11-22T05:45:42;17.70;;;12.20;;
18677;SDS011;9469;51.114;13.914;2022-11-22T05:50:49;22.17;;;15.70;;
18677;SDS011;9469;51.114;13.914;2022-11-22T05:55:54;21.13;;;13.83;;
18677;SDS011;9469;51.114;13.914;2022-11-22T06:01:03;17.57;;;14.13;;
18677;SDS011;9469;51.114;13.914;2022-11-22T06:06:13;17.70;;;12.93;;
18677;SDS011;9469;51.114;13.914;2022-11-22T06:11:18;18.40;;;16.00;;
18677;SDS011;9469;51.114;13.914;2022-11-22T06:16:32;18.87;;;15.23;;
18677;SDS011;9469;51.114;13.914;2022-11-22T06:21:40;20.27;;;13.23;;
18677;SDS011;9469;51.114;13.914;2022-11-22T06:26:46;23.47;;;15.87;;
18677;SDS011;9469;51.114;13.914;2022-11-22T06:31:51;19.30;;;14.00;;
18677;SDS011;9469;51.114;13.914;2022-11-22T06:37:06;20.47;;;14.10;;
18677;SDS011;9469;51.114;13.914;2022-11-22T06:42:11;21.67;;;15.23;;
18677;SDS011;9469;51.114;13.914;2022-11-22T06:47:45;20.73;;;14.67;;
18677;SDS011;9469;51.114;13.914;2022-11-22T06:53:06;21.03;;;14.37;;
18677;SDS011;9469;51.114;13.914;2022-11-22T06:58:38;18.43;;;13.13;;
18677;SDS011;9469;51.114;13.914;2022-11-22T07:04:22;20.10;;;15.13;;
18677;SDS011;9469;51.114;13.914;2022-11-22T07:10:29;17.10;;;12.33;;
18677;SDS011;9469;51.114;13.914;2022-11-22T07:15:42;21.60;;;15.47;;
18677;SDS011;9469;51.114;13.914;2022-11-22T07:20:58;22.53;;;14.40;;
18677;SDS011;9469;51.114;13.914;2022-11-22T07:26:16;20.43;;;13.93;;
18677;SDS011;9469;51.114;13.914;2022-11-22T07:31:26;23.23;;;15.43;;
18677;SDS011;9469;51.114;13.914;2022-11-22T07:36:34;22.43;;;15.37;;
18677;SDS011;9469;51.114;13.914;2022-11-22T07:41:42;22.73;;;16.43;;
18677;SDS011;9469;51.114;13.914;2022-11-22T07:46:47;21.97;;;15.87;;
18677;SDS011;9469;51.114;13.914;2022-11-22T07:51:55;26.77;;;16.70;;
18677;SDS011;9469;51.114;13.914;2022-11-22T07:57:03;21.93;;;15.27;;
18677;SDS011;9469;51.114;13.914;2022-11-22T08:02:09;22.90;;;15.47;;
18677;SDS011;9469;51.114;13.914;2022-11-22T08:07:15;24.50;;;15.37;;
18677;SDS011;9469;51.114;13.914;2022-11-22T08:12:25;22.40;;;14.93;;
18677;SDS011;9469;51.114;13.914;2022-11-22T08:17:33;21.93;;;14.77;;
18677;SDS011;9469;51.114;13.914;2022-11-22T08:22:39;22.10;;;13.77;;
18677;SDS011;9469;51.114;13.914;2022-11-22T08:27:49;22.80;;;13.93;;
18677;SDS011;9469;51.114;13.914;2022-11-22T08:32:54;23.83;;;15.83;;
18677;SDS011;9469;51.114;13.914;2022-11-22T08:38:00;23.60;;;15.97;;
18677;SDS011;9469;51.114;13.914;2022-11-22T08:43:07;20.97;;;15.13;;
18677;SDS011;9469;51.114;13.914;2022-11-22T08:48:14;21.60;;;14.80;;
18677;SDS011;9469;51.114;13.914;2022-11-22T08:53:24;21.87;;;14.53;;
18677;SDS011;9469;51.114;13.914;2022-11-22T08:58:38;22.20;;;16.03;;
18677;SDS011;9469;51.114;13.914;2022-11-22T09:03:44;20.93;;;14.60;;
18677;SDS011;9469;51.114;13.914;2022-11-22T09:08:50;24.13;;;15.23;;
18677;SDS011;9469;51.114;13.914;2022-11-22T09:14:18;20.43;;;12.90;;
18677;SDS011;9469;51.114;13.914;2022-11-22T09:19:25;21.77;;;13.90;;
18677;SDS011;9469;51.114;13.914;2022-11-22T09:24:36;19.73;;;14.17;;
18677;SDS011;9469;51.114;13.914;2022-11-22T09:29:44;21.50;;;13.97;;
18677;SDS011;9469;51.114;13.914;2022-11-22T09:34:49;21.10;;;13.53;;
18677;SDS011;9469;51.114;13.914;2022-11-22T09:39:54;23.90;;;15.00;;
18677;SDS011;9469;51.114;13.914;2022-11-22T09:45:21;20.40;;;13.20;;
18677;SDS011;9469;51.114;13.914;2022-11-22T09:50:37;18.33;;;13.70;;
18677;SDS011;9469;51.114;13.914;2022-11-22T09:55:52;18.40;;;12.73;;
18677;SDS011;9469;51.114;13.914;2022-11-22T10:01:05;19.07;;;12.50;;
18677;SDS011;9469;51.114;13.914;2022-11-22T10:06:17;20.67;;;13.80;;
18677;SDS011;9469;51.114;13.914;2022-11-22T10:11:28;17.77;;;12.83;;
18677;SDS011;9469;51.114;13.914;2022-11-22T10:16:43;17.33;;;12.73;;
18677;SDS011;9469;51.114;13.914;2022-11-22T10:21:54;19.23;;;13.07;;
18677;SDS011;9469;51.114;13.914;2022-11-22T10:27:01;17.80;;;11.90;;
18677;SDS011;9469;51.114;13.914;2022-11-22T10:32:10;14.33;;;10.00;;
18677;SDS011;9469;51.114;13.914;2022-11-22T10:37:21;14.70;;;10.17;;
18677;SDS011;9469;51.114;13.914;2022-11-22T10:42:45;15.60;;;10.90;;
18677;SDS011;9469;51.114;13.914;2022-11-22T10:48:14;15.47;;;9.80;;
18677;SDS011;9469;51.114;13.914;2022-11-22T10:53:33;14.23;;;10.23;;
18677;SDS011;9469;51.114;13.914;2022-11-22T10:58:59;14.30;;;10.27;;
18677;SDS011;9469;51.114;13.914;2022-11-22T11:04:21;15.33;;;10.87;;
18677;SDS011;9469;51.114;13.914;2022-11-22T11:09:32;15.23;;;10.17;;
18677;SDS011;9469;51.114;13.914;2022-11-22T11:15:02;13.93;;;10.13;;
18677;SDS011;9469;51.114;13.914;2022-11-22T11:20:15;16.20;;;10.47;;
18677;SDS011;9469;51.114;13.914;2022-11-22T11:25:27;16.40;;;10.97;;
18677;SDS011;9469;51.114;13.914;2022-11-22T11:30:38;15.63;;;10.07;;
18677;SDS011;9469;51.114;13.914;2022-11-22T11:35:49;16.57;;;10.60;;
18677;SDS011;9469;51.114;13.914;2022-11-22T11:40:56;14.47;;;10.10;;
18677;SDS011;9469;51.114;13.914;2022-11-22T11:46:05;13.67;;;9.67;;
18677;SDS011;9469;51.114;13.914;2022-11-22T11:51:30;14.63;;;10.83;;
18677;SDS011;9469;51.114;13.914;2022-11-22T11:56:42;13.93;;;10.33;;
18677;SDS011;9469;51.114;13.914;2022-11-22T12:01:56;14.83;;;9.60;;
18677;SDS011;9469;51.114;13.914;2022-11-22T12:07:17;14.53;;;10.30;;
18677;SDS011;9469;51.114;13.914;2022-11-22T12:12:37;15.73;;;10.70;;
18677;SDS011;9469;51.114;13.914;2022-11-22T12:17:51;14.50;;;10.43;;
18677;SDS011;9469;51.114;13.914;2022-11-22T12:23:08;16.63;;;10.47;;
18677;SDS011;9469;51.114;13.914;2022-11-22T12:28:26;15.13;;;10.30;;
18677;SDS011;9469;51.114;13.914;2022-11-22T12:33:35;16.77;;;11.17;;
18677;SDS011;9469;51.114;13.914;2022-11-22T12:38:48;14.93;;;10.43;;
18677;SDS011;9469;51.114;13.914;2022-11-22T12:43:56;18.63;;;11.87;;
18677;SDS011;9469;51.114;13.914;2022-11-22T12:49:09;15.50;;;11.23;;
18677;SDS011;9469;51.114;13.914;2022-11-22T12:54:22;15.67;;;11.80;;
18677;SDS011;9469;51.114;13.914;2022-11-22T12:59:35;15.87;;;11.97;;
18677;SDS011;9469;51.114;13.914;2022-11-22T13:04:53;17.63;;;11.97;;
18677;SDS011;9469;51.114;13.914;2022-11-22T13:10:08;19.07;;;11.93;;
18677;SDS011;9469;51.114;13.914;2022-11-22T13:15:25;18.43;;;13.80;;
18677;SDS011;9469;51.114;13.914;2022-11-22T13:20:32;19.67;;;13.93;;
18677;SDS011;9469;51.114;13.914;2022-11-22T13:31:16;16.67;;;12.30;;
18677;SDS011;9469;51.114;13.914;2022-11-22T13:36:23;16.47;;;12.43;;
18677;SDS011;9469;51.114;13.914;2022-11-22T13:41:46;19.00;;;13.27;;
18677;SDS011;9469;51.114;13.914;2022-11-22T13:46:56;18.10;;;12.53;;
18677;SDS011;9469;51.114;13.914;2022-11-22T13:52:04;20.30;;;13.47;;
18677;SDS011;9469;51.114;13.914;2022-11-22T13:57:46;19.27;;;13.87;;
18677;SDS011;9469;51.114;13.914;2022-11-22T14:02:52;22.37;;;14.13;;
18677;SDS011;9469;51.114;13.914;2022-11-22T14:07:58;18.13;;;13.87;;
18677;SDS011;9469;51.114;13.914;2022-11-22T14:13:19;19.93;;;13.77;;
18677;SDS011;9469;51.114;13.914;2022-11-22T14:18:45;17.77;;;14.20;;
18677;SDS011;9469;51.114;13.914;2022-11-22T14:24:37;19.57;;;13.93;;
18677;SDS011;9469;51.114;13.914;2022-11-22T14:30:11;17.33;;;13.37;;
18677;SDS011;9469;51.114;13.914;2022-11-22T14:35:23;18.07;;;13.60;;
18677;SDS011;9469;51.114;13.914;2022-11-22T14:40:33;19.40;;;14.13;;
18677;SDS011;9469;51.114;13.914;2022-11-22T14:45:43;20.77;;;15.10;;
18677;SDS011;9469;51.114;13.914;2022-11-22T14:50:54;17.87;;;13.63;;
18677;SDS011;9469;51.114;13.914;2022-11-22T14:56:13;19.60;;;13.93;;
18677;SDS011;9469;51.114;13.914;2022-11-22T15:01:32;23.33;;;15.20;;
18677;SDS011;9469;51.114;13.914;2022-11-22T15:06:50;20.00;;;13.93;;
18677;SDS011;9469;51.114;13.914;2022-11-22T15:12:37;21.17;;;14.30;;
18677;SDS011;9469;51.114;13.914;2022-11-22T15:17:56;20.97;;;14.50;;
18677;SDS011;9469;51.114;13.914;2022-11-22T15:23:32;24.00;;;16.27;;
18677;SDS011;9469;51.114;13.914;2022-11-22T15:29:00;23.53;;;15.67;;
18677;SDS011;9469;51.114;13.914;2022-11-22T15:34:27;21.70;;;16.13;;
18677;SDS011;9469;51.114;13.914;2022-11-22T15:39:53;25.37;;;17.63;;
18677;SDS011;9469;51.114;13.914;2022-11-22T15:45:19;28.20;;;18.93;;
18677;SDS011;9469;51.114;13.914;2022-11-22T15:51:05;24.33;;;16.43;;
18677;SDS011;9469;51.114;13.914;2022-11-22T15:56:44;28.47;;;17.60;;
18677;SDS011;9469;51.114;13.914;2022-11-22T16:02:12;29.27;;;18.07;;
18677;SDS011;9469;51.114;13.914;2022-11-22T16:07:25;28.30;;;18.73;;
18677;SDS011;9469;51.114;13.914;2022-11-22T16:12:36;27.23;;;17.93;;
18677;SDS011;9469;51.114;13.914;2022-11-22T16:17:49;29.23;;;17.73;;
18677;SDS011;9469;51.114;13.914;2022-11-22T16:23:10;34.80;;;19.93;;
18677;SDS011;9469;51.114;13.914;2022-11-22T16:28:32;32.20;;;20.63;;
18677;SDS011;9469;51.114;13.914;2022-11-22T16:33:38;39.13;;;23.70;;
18677;SDS011;9469;51.114;13.914;2022-11-22T16:38:49;42.03;;;24.37;;
18677;SDS011;9469;51.114;13.914;2022-11-22T16:43:55;34.50;;;23.60;;
18677;SDS011;9469;51.114;13.914;2022-11-22T16:49:09;37.67;;;22.43;;
18677;SDS011;9469;51.114;13.914;2022-11-22T16:54:21;37.53;;;23.40;;
18677;SDS011;9469;51.114;13.914;2022-11-22T16:59:29;37.00;;;22.87;;
18677;SDS011;9469;51.114;13.914;2022-11-22T17:04:34;35.00;;;21.50;;
18677;SDS011;9469;51.114;13.914;2022-11-22T17:09:44;33.90;;;21.17;;
18677;SDS011;9469;51.114;13.914;2022-11-22T17:14:49;37.30;;;22.97;;
18677;SDS011;9469;51.114;13.914;2022-11-22T17:19:54;32.87;;;22.50;;
18677;SDS011;9469;51.114;13.914;2022-11-22T17:25:03;33.83;;;22.60;;
18677;SDS011;9469;51.114;13.914;2022-11-22T17:30:10;37.23;;;23.57;;
18677;SDS011;9469;51.114;13.914;2022-11-22T17:35:18;32.50;;;20.93;;
18677;SDS011;9469;51.114;13.914;2022-11-22T17:40:25;33.83;;;21.60;;
18677;SDS011;9469;51.114;13.914;2022-11-22T17:45:30;36.07;;;22.30;;
18677;SDS011;9469;51.114;13.914;2022-11-22T17:50:40;34.10;;;21.37;;
18677;SDS011;9469;51.114;13.914;2022-11-22T17:55:49;31.63;;;20.20;;
18677;SDS011;9469;51.114;13.914;2022-11-22T18:01:11;35.90;;;21.67;;
18677;SDS011;9469;51.114;13.914;2022-11-22T18:06:19;33.93;;;20.07;;
18677;SDS011;9469;51.114;13.914;2022-11-22T18:11:29;32.73;;;20.63;;
18677;SDS011;9469;51.114;13.914;2022-11-22T18:16:36;36.90;;;20.87;;
18677;SDS011;9469;51.114;13.914;2022-11-22T18:21:40;35.90;;;21.57;;
18677;SDS011;9469;51.114;13.914;2022-11-22T18:26:48;36.67;;;20.70;;
18677;SDS011;9469;51.114;13.914;2022-11-22T18:31:53;36.97;;;21.20;;
18677;SDS011;9469;51.114;13.914;2022-11-22T18:37:00;36.50;;;21.93;;
18677;SDS011;9469;51.114;13.914;2022-11-22T18:42:09;38.27;;;22.57;;
18677;SDS011;9469;51.114;13.914;2022-11-22T18:47:18;39.40;;;23.27;;
18677;SDS011;9469;51.114;13.914;2022-11-22T18:52:23;37.67;;;22.50;;
18677;SDS011;9469;51.114;13.914;2022-11-22T18:57:31;40.10;;;23.37;;
18677;SDS011;9469;51.114;13.914;2022-11-22T19:02:38;42.27;;;24.07;;
18677;SDS011;9469;51.114;13.914;2022-11-22T19:07:47;40.07;;;23.37;;
18677;SDS011;9469;51.114;13.914;2022-11-22T19:12:55;43.17;;;24.40;;
18677;SDS011;9469;51.114;13.914;2022-11-22T19:18:00;40.40;;;23.07;;
18677;SDS011;9469;51.114;13.914;2022-11-22T19:23:05;39.70;;;22.53;;
18677;SDS011;9469;51.114;13.914;2022-11-22T19:28:13;43.00;;;24.93;;
18677;SDS011;9469;51.114;13.914;2022-11-22T19:33:19;36.93;;;22.77;;
18677;SDS011;9469;51.114;13.914;2022-11-22T19:38:25;39.97;;;23.17;;
18677;SDS011;9469;51.114;13.914;2022-11-22T19:43:35;43.60;;;25.13;;
18677;SDS011;9469;51.114;13.914;2022-11-22T19:48:40;44.87;;;25.13;;
18677;SDS011;9469;51.114;13.914;2022-11-22T19:53:50;45.77;;;24.27;;
18677;SDS011;9469;51.114;13.914;2022-11-22T19:59:03;44.40;;;23.87;;
18677;SDS011;9469;51.114;13.914;2022-11-22T20:04:11;42.87;;;24.93;;
18677;SDS011;9469;51.114;13.914;2022-11-22T20:09:17;41.37;;;23.20;;
18677;SDS011;9469;51.114;13.914;2022-11-22T20:14:26;43.80;;;24.10;;
18677;SDS011;9469;51.114;13.914;2022-11-22T20:19:33;40.57;;;23.33;;
18677;SDS011;9469;51.114;13.914;2022-11-22T20:24:38;40.33;;;22.37;;
18677;SDS011;9469;51.114;13.914;2022-11-22T20:29:49;43.80;;;25.07;;
18677;SDS011;9469;51.114;13.914;2022-11-22T20:34:56;39.73;;;22.70;;
18677;SDS011;9469;51.114;13.914;2022-11-22T20:40:01;38.77;;;23.20;;
18677;SDS011;9469;51.114;13.914;2022-11-22T20:45:10;40.93;;;21.50;;
18677;SDS011;9469;51.114;13.914;2022-11-22T20:50:15;41.37;;;22.60;;
18677;SDS011;9469;51.114;13.914;2022-11-22T20:55:21;40.07;;;23.63;;
18677;SDS011;9469;51.114;13.914;2022-11-22T21:00:29;37.30;;;21.87;;
18677;SDS011;9469;51.114;13.914;2022-11-22T21:05:34;36.27;;;21.23;;
18677;SDS011;9469;51.114;13.914;2022-11-22T21:10:40;36.77;;;22.40;;
18677;SDS011;9469;51.114;13.914;2022-11-22T21:15:47;45.70;;;23.63;;
18677;SDS011;9469;51.114;13.914;2022-11-22T21:20:52;50.37;;;26.97;;
18677;SDS011;9469;51.114;13.914;2022-11-22T21:25:57;39.33;;;21.93;;
18677;SDS011;9469;51.114;13.914;2022-11-22T21:31:05;39.10;;;22.10;;
18677;SDS011;9469;51.114;13.914;2022-11-22T21:36:10;41.80;;;21.93;;
18677;SDS011;9469;51.114;13.914;2022-11-22T21:41:16;36.07;;;21.83;;
18677;SDS011;9469;51.114;13.914;2022-11-22T21:46:45;45.57;;;23.30;;
18677;SDS011;9469;51.114;13.914;2022-11-22T21:51:51;39.63;;;21.20;;
18677;SDS011;9469;51.114;13.914;2022-11-22T21:56:56;41.97;;;23.93;;
18677;SDS011;9469;51.114;13.914;2022-11-22T22:02:07;39.67;;;22.83;;
18677;SDS011;9469;51.114;13.914;2022-11-22T22:07:12;43.20;;;24.70;;
18677;SDS011;9469;51.114;13.914;2022-11-22T22:12:37;41.27;;;23.53;;
18677;SDS011;9469;51.114;13.914;2022-11-22T22:17:45;45.63;;;22.80;;
18677;SDS011;9469;51.114;13.914;2022-11-22T22:22:50;39.47;;;21.77;;
18677;SDS011;9469;51.114;13.914;2022-11-22T22:27:55;38.43;;;21.93;;
18677;SDS011;9469;51.114;13.914;2022-11-22T22:33:03;37.20;;;20.63;;
18677;SDS011;9469;51.114;13.914;2022-11-22T22:38:08;40.67;;;23.57;;
18677;SDS011;9469;51.114;13.914;2022-11-22T22:43:13;36.27;;;21.87;;
18677;SDS011;9469;51.114;13.914;2022-11-22T22:48:21;37.80;;;21.73;;
18677;SDS011;9469;51.114;13.914;2022-11-22T22:53:26;42.00;;;20.73;;
18677;SDS011;9469;51.114;13.914;2022-11-22T22:58:31;37.83;;;21.53;;
18677;SDS011;9469;51.114;13.914;2022-11-22T23:03:39;41.43;;;21.50;;
18677;SDS011;9469;51.114;13.914;2022-11-22T23:08:46;36.70;;;21.97;;
18677;SDS011;9469;51.114;13.914;2022-11-22T23:13:53;33.90;;;20.33;;
18677;SDS011;9469;51.114;13.914;2022-11-22T23:19:00;37.97;;;19.30;;
18677;SDS011;9469;51.114;13.914;2022-11-22T23:24:06;37.63;;;23.07;;
18677;SDS011;9469;51.114;13.914;2022-11-22T23:29:11;38.37;;;21.83;;
18677;SDS011;9469;51.114;13.914;2022-11-22T23:34:20;35.10;;;20.67;;
18677;SDS011;9469;51.114;13.914;2022-11-22T23:39:25;38.47;;;22.00;;
18677;SDS011;9469;51.114;13.914;2022-11-22T23:44:30;45.33;;;23.63;;
18677;SDS011;9469;51.114;13.914;2022-11-22T23:49:38;43.27;;;23.83;;
18677;SDS011;9469;51.114;13.914;2022-11-22T23:54:43;41.33;;;22.33;;
18677;SDS011;9469;51.114;13.914;2022-11-22T23:59:48;44.57;;;23.37;;
